Time;durP1;ratioP1;P1;durP2;ratioP2;P2;SDS_P1;SDS_P2;PMS_P1;PMS_P2;Temp;Humidity;BMP_temperature;BMP_pressure;BME280_temperature;BME280_humidity;BME280_pressure;Samples;Min_cycle;Max_cycle;Signal;HPM_P1;HPM_P2
2022/08/11 00:00:32;;;;;;;14.47;13.27;;;19.20;87.00;;;;;;5064693;28;20486;-68
2022/08/11 00:03:05;;;;;;;14.57;13.77;;;19.10;83.40;;;;;;5064834;28;20458;-67
2022/08/11 00:05:32;;;;;;;14.20;13.30;;;19.10;83.30;;;;;;5060727;28;20463;-67
2022/08/11 00:08:00;;;;;;;13.70;13.00;;;19.00;83.30;;;;;;5057403;28;20471;-67
2022/08/11 00:10:29;;;;;;;14.17;13.27;;;19.00;82.40;;;;;;5061446;28;20957;-68
2022/08/11 00:12:59;;;;;;;13.73;13.00;;;19.00;84.40;;;;;;5057426;28;20455;-67
2022/08/11 00:15:29;;;;;;;15.57;14.47;;;19.00;84.70;;;;;;5062648;28;20482;-67
2022/08/11 00:17:58;;;;;;;14.20;13.33;;;19.10;90.00;;;;;;5061431;28;20492;-68
2022/08/11 00:20:32;;;;;;;13.73;13.00;;;19.30;89.40;;;;;;5059947;28;20829;-67
2022/08/11 00:23:06;;;;;;;14.60;13.87;;;19.30;89.60;;;;;;5063587;28;20463;-67
2022/08/11 00:25:38;;;;;;;14.50;13.37;;;19.40;89.70;;;;;;5053250;28;20470;-67
2022/08/11 00:28:10;;;;;;;14.27;13.47;;;19.30;86.50;;;;;;5059167;28;20468;-67
2022/08/11 00:30:39;;;;;;;14.23;13.50;;;19.30;87.30;;;;;;5065454;28;20463;-67
2022/08/11 00:33:07;;;;;;;14.17;13.37;;;19.20;85.30;;;;;;5063083;28;20466;-67
2022/08/11 00:35:35;;;;;;;14.23;13.53;;;19.30;90.00;;;;;;5065645;28;20478;-67
2022/08/11 00:38:03;;;;;;;15.07;13.80;;;19.50;90.10;;;;;;5064809;28;20592;-67
2022/08/11 00:40:37;;;;;;;15.10;14.10;;;19.50;90.20;;;;;;5065980;28;20455;-66
2022/08/11 00:43:22;;;;;;;15.00;13.70;;;19.50;90.00;;;;;;5060945;28;20477;-67
2022/08/11 00:46:08;;;;;;;15.33;14.17;;;19.50;90.20;;;;;;5064668;28;20466;-67
2022/08/11 00:48:45;;;;;;;15.27;14.17;;;19.50;90.40;;;;;;5064970;28;20478;-67
2022/08/11 00:51:24;;;;;;;14.77;13.67;;;19.40;90.30;;;;;;5061181;28;20447;-66
2022/08/11 00:54:06;;;;;;;14.47;13.77;;;19.50;90.20;;;;;;5055224;28;20467;-67
2022/08/11 00:57:11;;;;;;;15.50;14.43;;;19.40;90.70;;;;;;5064215;28;20574;-67
2022/08/11 01:00:10;;;;;;;15.33;14.47;;;19.30;90.80;;;;;;5055438;28;20483;-67
2022/08/11 01:02:51;;;;;;;14.30;13.50;;;19.20;91.50;;;;;;5061572;28;20459;-66
2022/08/11 01:05:55;;;;;;;15.30;14.30;;;19.20;92.40;;;;;;5056774;28;20812;-67
2022/08/11 01:08:58;;;;;;;14.67;13.87;;;19.10;92.80;;;;;;5046274;28;20516;-67
2022/08/11 01:11:45;;;;;;;15.33;14.23;;;19.10;93.20;;;;;;5059185;28;20970;-67
2022/08/11 01:14:37;;;;;;;15.50;14.60;;;19.10;93.40;;;;;;5055576;28;20981;-66
2022/08/11 01:17:42;;;;;;;15.63;14.33;;;19.10;93.80;;;;;;5067393;28;21023;-67
2022/08/11 01:20:32;;;;;;;14.77;13.87;;;19.10;93.90;;;;;;5067795;28;20454;-67
2022/08/11 01:23:39;;;;;;;15.40;14.37;;;19.00;93.70;;;;;;5066627;28;20455;-67
2022/08/11 01:26:59;;;;;;;15.47;14.50;;;18.90;94.70;;;;;;5067031;28;20455;-66
2022/08/11 01:30:27;;;;;;;15.27;14.37;;;18.80;95.10;;;;;;5067287;28;20482;-66
2022/08/11 01:33:19;;;;;;;14.60;13.57;;;18.80;95.80;;;;;;5059725;28;20834;-67
2022/08/11 01:36:27;;;;;;;15.47;14.57;;;18.70;96.70;;;;;;5064518;28;20470;-66
2022/08/11 01:39:31;;;;;;;15.77;14.70;;;18.60;97.30;;;;;;5059630;28;20506;-67
2022/08/11 01:45:21;;;;;;;15.80;14.80;;;18.50;98.90;;;;;;5052829;28;20605;-66
2022/08/11 01:47:58;;;;;;;14.80;14.00;;;18.50;99.50;;;;;;5060718;28;20510;-66
2022/08/11 01:50:35;;;;;;;16.40;15.40;;;18.50;99.70;;;;;;5063733;28;20474;-67
2022/08/11 01:53:15;;;;;;;16.10;15.20;;;18.50;99.90;;;;;;5063582;28;20486;-66
2022/08/11 01:55:56;;;;;;;15.63;14.63;;;18.50;99.90;;;;;;5058521;28;20460;-67
2022/08/11 01:58:35;;;;;;;15.63;14.53;;;18.30;99.90;;;;;;5064185;28;20485;-67
2022/08/11 02:01:11;;;;;;;15.13;14.23;;;18.30;99.90;;;;;;5063412;28;20493;-67
2022/08/11 02:03:47;;;;;;;15.70;14.60;;;18.20;99.50;;;;;;5060668;28;20471;-66
2022/08/11 02:09:13;;;;;;;15.47;14.43;;;18.00;99.70;;;;;;5066475;28;20523;-66
2022/08/11 02:11:42;;;;;;;15.50;14.67;;;17.90;99.90;;;;;;5062982;28;21013;-67
2022/08/11 02:14:19;;;;;;;15.80;14.67;;;17.80;99.90;;;;;;5067824;28;20561;-66
2022/08/11 02:17:13;;;;;;;15.30;14.30;;;17.80;99.90;;;;;;5063937;28;21040;-67
2022/08/11 02:25:45;;;;;;;15.80;14.90;;;17.70;99.90;;;;;;5057643;28;20891;-67
2022/08/11 02:28:20;;;;;;;16.10;15.00;;;17.60;99.90;;;;;;5062859;28;20509;-66
2022/08/11 02:33:43;;;;;;;15.73;14.73;;;17.50;99.90;;;;;;5054551;28;20546;-67
2022/08/11 02:36:18;;;;;;;15.27;14.47;;;17.40;99.90;;;;;;5063879;28;20549;-66
2022/08/11 02:38:53;;;;;;;15.77;14.67;;;17.40;99.90;;;;;;5064295;28;20669;-66
2022/08/11 02:44:27;;;;;;;15.80;14.53;;;17.30;99.90;;;;;;5062903;28;20463;-66
2022/08/11 02:47:03;;;;;;;17.47;16.37;;;17.40;99.90;;;;;;5065705;28;20581;-66
2022/08/11 02:49:53;;;;;;;16.60;15.17;;;17.30;99.90;;;;;;5054386;28;20481;-67
2022/08/11 02:52:27;;;;;;;16.33;15.03;;;17.40;99.90;;;;;;5063393;28;20470;-66
2022/08/11 02:55:10;;;;;;;15.53;14.53;;;17.40;99.90;;;;;;5061278;28;20822;-66
2022/08/11 02:57:43;;;;;;;16.73;15.70;;;17.30;99.90;;;;;;5057017;28;20455;-67
2022/08/11 03:00:13;;;;;;;16.93;15.90;;;17.30;99.90;;;;;;5060589;28;20486;-66
2022/08/11 03:02:54;;;;;;;16.77;15.17;;;17.30;99.90;;;;;;5055445;28;20482;-66
2022/08/11 03:05:38;;;;;;;17.33;15.70;;;17.30;99.90;;;;;;5052933;28;20472;-66
2022/08/11 03:08:17;;;;;;;16.10;15.10;;;17.30;99.90;;;;;;5058679;28;20553;-67
2022/08/11 03:16:54;;;;;;;16.80;15.70;;;17.30;99.90;;;;;;5056322;28;20518;-67
2022/08/11 03:19:33;;;;;;;16.47;15.47;;;17.30;99.90;;;;;;5064263;28;20523;-66
2022/08/11 03:22:08;;;;;;;17.37;16.27;;;17.30;99.90;;;;;;5064432;28;20469;-66
2022/08/11 03:24:53;;;;;;;17.40;16.00;;;17.20;99.90;;;;;;5059691;28;20462;-66
2022/08/11 03:27:32;;;;;;;16.10;15.00;;;17.20;99.90;;;;;;5057213;28;20452;-66
2022/08/11 03:30:10;;;;;;;17.10;15.73;;;17.20;99.90;;;;;;5063268;28;20461;-66
2022/08/11 03:34:00;;;;;;;17.77;16.10;;;17.10;99.90;;;;;;5059141;28;20454;-66
2022/08/11 03:35:41;;;;;;;17.47;16.23;;;17.10;99.90;;;;;;5048989;28;20545;-66
2022/08/11 03:38:14;;;;;;;17.53;16.10;;;17.10;99.90;;;;;;5058707;28;20468;-67
2022/08/11 03:44:07;;;;;;;17.50;16.20;;;17.00;99.90;;;;;;5051793;28;21033;-66
2022/08/11 03:46:56;;;;;;;16.20;15.30;;;16.90;99.90;;;;;;5062687;28;20467;-66
2022/08/11 03:49:32;;;;;;;17.40;16.10;;;16.80;99.90;;;;;;5062975;28;21045;-67
2022/08/11 03:52:12;;;;;;;16.60;15.50;;;16.70;99.90;;;;;;5064022;28;20458;-67
2022/08/11 03:54:50;;;;;;;16.93;15.60;;;16.60;99.90;;;;;;5057077;28;20469;-67
2022/08/11 03:57:54;;;;;;;17.00;16.00;;;16.60;99.90;;;;;;5058959;28;20457;-66
2022/08/11 04:00:46;;;;;;;18.27;16.67;;;16.50;99.90;;;;;;5057250;28;20641;-66
2022/08/11 04:03:57;;;;;;;18.37;16.37;;;16.50;99.90;;;;;;5054644;28;20537;-67
2022/08/11 04:07:00;;;;;;;17.40;16.00;;;16.40;99.90;;;;;;5033772;28;20467;-68
2022/08/11 04:10:21;;;;;;;16.87;15.77;;;16.40;99.90;;;;;;5034236;28;20466;-67
2022/08/11 04:13:25;;;;;;;16.87;15.47;;;16.30;99.90;;;;;;4912554;28;20975;-66
2022/08/11 04:16:27;;;;;;;17.10;15.90;;;16.20;99.90;;;;;;4948061;28;20487;-67
2022/08/11 04:19:51;;;;;;;17.87;16.67;;;16.00;99.90;;;;;;5013788;28;20498;-67
2022/08/11 04:22:51;;;;;;;16.10;15.10;;;15.90;99.90;;;;;;4935269;28;20471;-67
2022/08/11 04:25:35;;;;;;;16.70;15.57;;;15.90;99.90;;;;;;5035278;28;20966;-67
2022/08/11 04:28:47;;;;;;;16.87;15.60;;;15.90;99.90;;;;;;5034793;28;20455;-67
2022/08/11 04:31:39;;;;;;;16.40;15.30;;;15.80;99.90;;;;;;5035465;28;20782;-68
2022/08/11 04:34:42;;;;;;;16.60;15.50;;;15.80;99.90;;;;;;5031186;28;20467;-67
2022/08/11 04:37:37;;;;;;;15.97;15.00;;;15.80;99.90;;;;;;5035579;28;20466;-68
2022/08/11 04:40:35;;;;;;;16.17;15.23;;;16.00;99.90;;;;;;5036314;28;20494;-67
2022/08/11 04:43:45;;;;;;;17.17;15.77;;;15.90;99.90;;;;;;5035712;28;20838;-67
2022/08/11 04:47:05;;;;;;;18.17;16.67;;;15.90;99.90;;;;;;5035309;28;20462;-67
2022/08/11 05:02:36;;;;;;;19.33;16.70;;;15.80;99.90;;;;;;5032616;28;20469;-66
2022/08/11 05:08:44;;;;;;;17.47;16.33;;;15.90;99.90;;;;;;5059777;28;20489;-66
2022/08/11 05:11:44;;;;;;;17.00;15.93;;;16.00;99.90;;;;;;4983143;28;20462;-66
2022/08/11 05:37:18;;;;;;;17.50;16.30;;;16.70;99.90;;;;;;5039518;28;20513;-66
2022/08/11 05:56:42;;;;;;;17.27;15.93;;;17.30;99.90;;;;;;5039091;28;20568;-67
2022/08/11 05:59:14;;;;;;;17.30;16.07;;;17.60;99.90;;;;;;5038541;28;20484;-67
2022/08/11 06:01:44;;;;;;;18.17;16.47;;;17.80;99.90;;;;;;5049062;28;20517;-67
2022/08/11 06:04:18;;;;;;;18.53;17.00;;;18.10;99.90;;;;;;5064675;28;20486;-66
2022/08/11 06:06:56;;;;;;;18.93;17.33;;;18.50;99.90;;;;;;5045161;28;20809;-68
2022/08/11 06:09:27;;;;;;;22.77;17.17;;;18.70;99.90;;;;;;5036732;28;20823;-67
2022/08/11 06:11:58;;;;;;;20.43;18.10;;;19.00;99.90;;;;;;5036464;28;20868;-67
2022/08/11 06:14:25;;;;;;;27.27;18.80;;;19.30;99.90;;;;;;5035849;28;20480;-67
2022/08/11 06:16:58;;;;;;;33.73;19.87;;;19.50;99.90;;;;;;5034151;28;20491;-68
2022/08/11 06:19:33;;;;;;;38.20;19.07;;;19.80;99.90;;;;;;5036195;28;20549;-68
2022/08/11 06:22:03;;;;;;;31.83;18.50;;;20.00;99.90;;;;;;5035866;28;20465;-67
2022/08/11 06:24:31;;;;;;;46.30;19.33;;;20.20;99.90;;;;;;5028044;28;20554;-68
2022/08/11 06:26:59;;;;;;;37.70;20.30;;;20.40;99.90;;;;;;5036768;28;20462;-67
2022/08/11 06:29:27;;;;;;;59.67;19.50;;;20.60;99.90;;;;;;5035287;28;21013;-66
2022/08/11 06:34:55;;;;;;;47.17;20.60;;;21.10;99.90;;;;;;5034592;28;20486;-67
2022/08/11 06:37:26;;;;;;;33.00;19.60;;;21.40;99.90;;;;;;5034848;28;20983;-66
2022/08/11 06:40:04;;;;;;;54.97;21.80;;;21.70;99.90;;;;;;5034557;28;20582;-67
2022/08/11 06:42:47;;;;;;;67.47;21.07;;;21.80;99.90;;;;;;5035490;28;20466;-67
2022/08/11 06:45:26;;;;;;;39.87;20.57;;;22.00;99.90;;;;;;5035728;28;20471;-67
2022/08/11 06:47:59;;;;;;;36.63;20.53;;;22.20;99.90;;;;;;5036376;28;20483;-67
2022/08/11 06:53:19;;;;;;;42.13;21.00;;;22.60;99.70;;;;;;5035752;28;20470;-67
2022/08/11 07:01:35;;;;;;;46.27;20.00;;;22.90;97.30;;;;;;5040467;28;20849;-67
2022/08/11 07:15:42;;;;;;;28.33;18.70;;;23.80;94.40;;;;;;5047109;28;20479;-67
2022/08/11 07:29:32;;;;;;;31.00;19.57;;;24.40;90.40;;;;;;5012831;28;20593;-68
2022/08/11 07:32:09;;;;;;;19.90;17.10;;;24.50;90.50;;;;;;5014013;28;20463;-67
2022/08/11 07:34:40;;;;;;;20.10;18.00;;;24.70;90.80;;;;;;5013100;28;20471;-68
2022/08/11 07:37:15;;;;;;;24.57;17.90;;;24.90;88.60;;;;;;5013228;28;20468;-68
2022/08/11 07:39:58;;;;;;;25.73;17.97;;;25.00;87.40;;;;;;5012974;28;20587;-67
2022/08/11 07:42:30;;;;;;;22.40;17.87;;;25.10;86.00;;;;;;5014360;28;20464;-67
2022/08/11 07:53:17;;;;;;;28.00;18.83;;;25.30;83.00;;;;;;5012669;28;20468;-67
2022/08/11 07:55:48;;;;;;;21.50;17.77;;;25.40;81.70;;;;;;5014390;28;20464;-67
2022/08/11 08:17:51;;;;;;;18.70;17.40;;;26.30;74.60;;;;;;5027621;28;20550;-67
2022/08/11 08:20:20;;;;;;;20.40;18.83;;;26.70;73.20;;;;;;5033944;28;20482;-67
2022/08/11 08:22:55;;;;;;;26.07;17.80;;;26.70;71.60;;;;;;5051525;28;20466;-67
2022/08/11 08:25:25;;;;;;;22.30;17.30;;;26.80;69.90;;;;;;5056109;28;20658;-68
2022/08/11 08:27:55;;;;;;;20.33;17.43;;;27.00;70.10;;;;;;5057265;28;20932;-68
2022/08/11 08:33:08;;;;;;;19.13;17.27;;;27.30;69.00;;;;;;5041045;28;20509;-67
2022/08/11 08:35:36;;;;;;;18.63;17.23;;;27.60;66.30;;;;;;5061391;28;20463;-67
2022/08/11 08:38:05;;;;;;;18.30;17.03;;;27.70;65.50;;;;;;5053162;28;20468;-67
2022/08/11 08:40:34;;;;;;;19.33;17.23;;;27.80;65.90;;;;;;5062439;28;20595;-68
2022/08/11 08:43:06;;;;;;;18.17;16.63;;;28.00;63.70;;;;;;5059551;28;20835;-68
2022/08/11 08:45:36;;;;;;;18.47;17.07;;;28.30;61.30;;;;;;5062753;28;20506;-67
2022/08/11 08:48:08;;;;;;;18.87;17.17;;;28.60;59.80;;;;;;5047910;28;20484;-67
2022/08/11 08:53:28;;;;;;;19.17;17.53;;;30.20;57.30;;;;;;5032530;28;20537;-68
2022/08/11 08:56:00;;;;;;;19.50;17.77;;;31.00;55.30;;;;;;5059337;28;20451;-68
2022/08/11 08:58:29;;;;;;;19.37;17.90;;;31.50;53.10;;;;;;5061216;28;20992;-69
2022/08/11 09:01:00;;;;;;;18.30;17.20;;;32.00;50.80;;;;;;5039722;28;20487;-68
2022/08/11 09:03:28;;;;;;;19.47;18.03;;;32.00;50.20;;;;;;5061099;28;20470;-68
2022/08/11 09:05:55;;;;;;;18.20;16.87;;;32.70;49.00;;;;;;5051851;28;20478;-69
2022/08/11 09:08:23;;;;;;;17.90;16.80;;;32.80;47.10;;;;;;5035721;28;20550;-69
2022/08/11 09:11:48;;;;;;;19.23;17.67;;;33.10;46.10;;;;;;5036856;28;20464;-68
2022/08/11 09:13:43;;;;;;;18.40;17.30;;;33.40;43.70;;;;;;5031862;28;20448;-69
2022/08/11 09:16:10;;;;;;;18.50;17.30;;;33.80;44.10;;;;;;5034733;28;20498;-69
2022/08/11 09:18:39;;;;;;;17.73;16.63;;;34.40;42.50;;;;;;5037781;28;20462;-68
2022/08/11 09:21:06;;;;;;;18.10;16.90;;;34.10;41.20;;;;;;5035968;28;20537;-68
2022/08/11 09:29:11;;;;;;;18.50;17.30;;;34.20;39.10;;;;;;5037169;28;20498;-68
2022/08/11 09:31:38;;;;;;;18.67;17.17;;;34.50;39.00;;;;;;5037413;28;20471;-68
2022/08/11 09:34:05;;;;;;;18.97;17.07;;;34.50;38.40;;;;;;5036127;28;20460;-68
2022/08/11 09:42:04;;;;;;;20.17;18.27;;;35.10;36.00;;;;;;5027500;28;20896;-68
2022/08/11 09:44:49;;;;;;;18.57;17.20;;;35.40;35.60;;;;;;5036778;28;20684;-69
2022/08/11 09:47:22;;;;;;;20.00;17.23;;;35.80;35.70;;;;;;5034485;28;20459;-69
2022/08/11 09:49:51;;;;;;;18.67;17.17;;;35.80;34.40;;;;;;5035977;28;20947;-68
2022/08/11 09:52:19;;;;;;;19.57;16.70;;;35.90;33.70;;;;;;5036191;28;20956;-69
2022/08/11 09:54:48;;;;;;;18.87;17.10;;;35.80;34.40;;;;;;5035183;28;20463;-69
2022/08/11 10:00:07;;;;;;;19.57;17.63;;;36.00;33.60;;;;;;5035637;28;20514;-69
2022/08/11 10:02:39;;;;;;;18.50;17.07;;;36.40;32.50;;;;;;5025853;28;20505;-69
2022/08/11 10:07:53;;;;;;;18.83;17.20;;;36.80;31.60;;;;;;5057591;28;20471;-68
2022/08/11 10:10:23;;;;;;;18.00;16.60;;;37.80;30.60;;;;;;5063700;28;20845;-68
2022/08/11 10:12:54;;;;;;;18.47;17.37;;;37.10;30.00;;;;;;5058880;28;20471;-69
2022/08/11 10:15:33;;;;;;;18.13;16.50;;;37.20;30.40;;;;;;5054657;28;20493;-68
2022/08/11 10:20:50;;;;;;;18.00;16.90;;;37.70;28.90;;;;;;5014791;28;20541;-69
2022/08/11 10:28:50;;;;;;;17.77;16.27;;;37.50;28.60;;;;;;5015185;28;20556;-69
2022/08/11 10:34:05;;;;;;;17.40;16.30;;;37.70;26.90;;;;;;4972765;28;21065;-69
2022/08/11 10:36:34;;;;;;;18.20;17.00;;;38.10;27.20;;;;;;5014947;28;20574;-69
2022/08/11 10:39:02;;;;;;;17.00;16.20;;;38.40;27.50;;;;;;5015016;28;20466;-70
2022/08/11 10:44:15;;;;;;;17.50;16.60;;;37.80;27.10;;;;;;5015345;28;20467;-69
2022/08/11 10:49:28;;;;;;;18.77;17.57;;;37.10;27.10;;;;;;5015673;28;20464;-68
2022/08/11 11:00:14;;;;;;;19.53;18.10;;;36.50;27.60;;;;;;5014803;28;20978;-69
2022/08/11 11:02:43;;;;;;;18.30;17.27;;;36.90;27.40;;;;;;5014120;28;20468;-69
2022/08/11 11:05:15;;;;;;;18.67;17.30;;;37.40;26.60;;;;;;5013561;28;20937;-69
2022/08/11 11:07:50;;;;;;;19.23;18.03;;;37.20;26.80;;;;;;5014857;28;20558;-68
2022/08/11 11:10:17;;;;;;;19.60;18.03;;;37.70;26.90;;;;;;5014283;28;20468;-69
2022/08/11 11:18:24;;;;;;;19.07;18.07;;;38.00;26.50;;;;;;5013219;28;20478;-69
2022/08/11 11:20:56;;;;;;;18.70;17.57;;;37.70;26.10;;;;;;5013992;28;21026;-69
2022/08/11 11:23:26;;;;;;;18.33;17.37;;;37.10;26.50;;;;;;5014340;28;21424;-69
2022/08/11 11:26:27;;;;;;;18.30;17.20;;;37.20;26.70;;;;;;5013405;28;20463;-68
2022/08/11 11:29:23;;;;;;;18.40;17.40;;;38.20;25.70;;;;;;5007022;28;22446;-69
2022/08/11 11:31:59;;;;;;;18.40;16.83;;;38.60;25.50;;;;;;5013774;28;20456;-69
2022/08/11 11:34:46;;;;;;;18.10;17.00;;;38.50;25.60;;;;;;5014568;28;20467;-68
2022/08/11 11:37:16;;;;;;;18.23;17.23;;;38.90;25.30;;;;;;5013080;28;21222;-69
2022/08/11 11:39:44;;;;;;;18.17;17.17;;;38.40;25.30;;;;;;5014755;28;20983;-69
2022/08/11 11:42:11;;;;;;;18.17;17.27;;;39.10;25.00;;;;;;5014185;28;20482;-69
2022/08/11 11:44:39;;;;;;;18.40;17.10;;;39.20;25.10;;;;;;5013740;28;21826;-68
2022/08/11 11:47:07;;;;;;;17.40;16.60;;;39.00;25.10;;;;;;5014205;28;20464;-69
2022/08/11 11:49:38;;;;;;;17.27;15.90;;;38.90;24.90;;;;;;5014596;28;20869;-69
2022/08/11 11:52:07;;;;;;;17.17;15.93;;;38.50;25.10;;;;;;5014524;28;20597;-68
2022/08/11 11:54:37;;;;;;;16.90;16.10;;;38.70;25.20;;;;;;5014359;28;20472;-69
2022/08/11 12:02:31;;;;;;;17.87;16.83;;;39.40;25.40;;;;;;5035012;28;20550;-70
2022/08/11 12:05:01;;;;;;;16.90;15.90;;;40.90;24.50;;;;;;5038567;28;20868;-68
2022/08/11 12:10:14;;;;;;;17.53;16.47;;;41.00;23.80;;;;;;5013509;28;21452;-70
2022/08/11 12:15:26;;;;;;;17.10;16.07;;;40.80;24.00;;;;;;5013585;28;20503;-69
2022/08/11 12:17:55;;;;;;;16.63;15.80;;;41.30;23.60;;;;;;5016790;28;21724;-69
2022/08/11 12:20:24;;;;;;;17.10;16.20;;;41.30;23.70;;;;;;5018131;28;20467;-69
2022/08/11 12:28:22;;;;;;;18.03;16.53;;;41.70;23.60;;;;;;5031693;28;20497;-69
2022/08/11 12:30:49;;;;;;;17.10;16.10;;;40.30;24.20;;;;;;5046046;28;20509;-68
2022/08/11 12:33:17;;;;;;;16.60;15.60;;;40.50;24.00;;;;;;5042999;28;20829;-69
2022/08/11 12:35:47;;;;;;;16.90;15.60;;;40.00;23.90;;;;;;5026896;28;20471;-69
2022/08/11 12:38:19;;;;;;;17.40;16.30;;;40.00;24.20;;;;;;5017917;28;20463;-69
2022/08/11 12:46:21;;;;;;;17.57;16.67;;;39.30;24.50;;;;;;5018483;28;20883;-69
2022/08/11 12:51:57;;;;;;;16.90;16.00;;;39.90;24.60;;;;;;5017908;28;20528;-68
2022/08/11 12:54:27;;;;;;;17.10;16.03;;;39.90;23.80;;;;;;5016824;28;20464;-69
2022/08/11 13:05:16;;;;;;;16.30;15.47;;;40.00;24.20;;;;;;5016899;28;20606;-69
2022/08/11 13:07:46;;;;;;;18.30;16.87;;;39.90;24.00;;;;;;5038498;28;20463;-68
2022/08/11 13:12:46;;;;;;;16.73;15.93;;;39.80;24.00;;;;;;5042819;28;20819;-68
2022/08/11 13:13:02;;;;;;;17.47;16.20;;;40.70;23.80;;;;;;5034656;28;20456;-69
2022/08/11 13:15:30;;;;;;;16.23;15.20;;;41.10;23.70;;;;;;5016472;28;20484;-69
2022/08/11 13:17:59;;;;;;;16.97;16.07;;;41.40;23.00;;;;;;5015626;28;21202;-69
2022/08/11 13:20:26;;;;;;;16.20;15.13;;;40.00;23.60;;;;;;5017201;28;20474;-69
2022/08/11 13:22:57;;;;;;;15.97;15.10;;;40.50;23.40;;;;;;5016804;28;20455;-69
2022/08/11 13:25:30;;;;;;;16.53;15.60;;;41.30;23.50;;;;;;5016892;28;20964;-69
2022/08/11 13:27:59;;;;;;;16.53;15.70;;;42.00;23.20;;;;;;5016341;28;20479;-69
2022/08/11 13:33:16;;;;;;;16.00;15.23;;;42.70;21.90;;;;;;5016792;28;20483;-69
2022/08/11 13:35:47;;;;;;;16.80;15.70;;;41.70;22.10;;;;;;5015838;28;20495;-68
2022/08/11 13:38:16;;;;;;;16.07;15.17;;;41.00;22.50;;;;;;5014532;28;20456;-70
2022/08/11 13:40:44;;;;;;;18.17;16.40;;;40.80;22.70;;;;;;5015556;28;20459;-70
2022/08/11 13:43:12;;;;;;;16.50;15.70;;;41.20;22.60;;;;;;5014484;28;20475;-69
2022/08/11 13:45:40;;;;;;;16.53;15.53;;;41.80;22.20;;;;;;5036766;28;20469;-68
2022/08/11 13:48:08;;;;;;;16.03;15.20;;;41.90;22.70;;;;;;5044395;28;21229;-68
2022/08/11 13:53:25;;;;;;;16.07;15.37;;;41.30;22.80;;;;;;5026948;28;20662;-68
2022/08/11 13:55:53;;;;;;;16.57;15.50;;;41.80;22.50;;;;;;5015396;28;20472;-69
2022/08/11 13:58:21;;;;;;;16.90;16.00;;;41.00;22.10;;;;;;5014894;28;20478;-69
2022/08/11 14:00:51;;;;;;;15.93;15.20;;;41.00;22.50;;;;;;5017882;28;20475;-69
2022/08/11 14:03:23;;;;;;;16.97;16.17;;;41.60;22.70;;;;;;5041755;28;21039;-69
2022/08/11 14:05:55;;;;;;;17.57;16.53;;;41.80;22.40;;;;;;5033040;28;20495;-69
2022/08/11 14:08:26;;;;;;;16.73;15.73;;;41.10;22.50;;;;;;5015768;28;20468;-69
2022/08/11 14:13:40;;;;;;;16.77;15.90;;;41.50;22.50;;;;;;5015424;28;22608;-69
2022/08/11 14:16:12;;;;;;;16.87;15.60;;;41.00;22.10;;;;;;5016367;28;20494;-69
2022/08/11 14:18:45;;;;;;;16.90;15.80;;;41.30;22.30;;;;;;5017466;28;20472;-69
2022/08/11 14:24:03;;;;;;;16.30;15.40;;;41.70;22.50;;;;;;5014617;28;20469;-69
2022/08/11 14:26:37;;;;;;;16.23;15.43;;;42.20;21.80;;;;;;5016385;28;20986;-68
2022/08/11 14:29:08;;;;;;;16.80;15.90;;;42.40;21.90;;;;;;5016142;28;20610;-69
2022/08/11 14:31:38;;;;;;;16.40;15.50;;;43.10;21.80;;;;;;5016532;28;20834;-69
2022/08/11 14:34:09;;;;;;;16.27;15.37;;;43.10;21.50;;;;;;5015648;28;20445;-69
2022/08/11 14:36:52;;;;;;;16.60;15.30;;;43.80;21.60;;;;;;5016274;28;20465;-70
2022/08/11 14:39:23;;;;;;;16.50;15.70;;;42.80;21.20;;;;;;5013888;28;20455;-70
2022/08/11 14:47:32;;;;;;;16.00;15.17;;;43.50;21.00;;;;;;5015089;28;20842;-69
2022/08/11 14:50:01;;;;;;;16.47;15.77;;;43.50;20.90;;;;;;5015830;28;20459;-69
2022/08/11 14:52:28;;;;;;;17.27;16.23;;;42.70;21.30;;;;;;5016817;28;20851;-69
2022/08/11 14:57:42;;;;;;;16.80;15.60;;;41.70;20.70;;;;;;5015771;28;20475;-69
2022/08/11 15:00:16;;;;;;;18.10;17.10;;;40.40;21.60;;;;;;5015573;28;21217;-69
2022/08/11 15:05:31;;;;;;;17.30;16.20;;;39.90;22.00;;;;;;5016053;28;20476;-68
2022/08/11 15:07:59;;;;;;;17.43;16.13;;;40.40;22.20;;;;;;5037483;28;20480;-69
2022/08/11 15:10:28;;;;;;;16.97;16.03;;;40.40;21.90;;;;;;5040411;28;20475;-69
2022/08/11 15:12:56;;;;;;;17.57;16.37;;;40.80;21.80;;;;;;5041360;28;20488;-69
2022/08/11 15:18:13;;;;;;;21.03;16.30;;;41.20;21.80;;;;;;5014358;28;20467;-69
2022/08/11 15:26:15;;;;;;;17.60;16.60;;;40.20;22.00;;;;;;5014162;28;21208;-69
2022/08/11 15:37:26;;;;;;;17.90;16.70;;;40.10;22.40;;;;;;5015209;28;21116;-69
2022/08/11 15:45:47;;;;;;;17.83;16.63;;;40.70;21.80;;;;;;5015603;28;20471;-68
2022/08/11 15:48:18;;;;;;;17.93;16.93;;;41.30;21.70;;;;;;5039789;28;20488;-68
2022/08/11 15:50:50;;;;;;;18.37;16.93;;;41.80;21.40;;;;;;5020641;28;20478;-68
2022/08/11 15:53:25;;;;;;;18.00;17.00;;;41.50;21.00;;;;;;5019180;28;21022;-69
2022/08/11 15:55:53;;;;;;;17.20;16.30;;;41.30;21.30;;;;;;5014990;28;20478;-69
2022/08/11 16:04:12;;;;;;;17.50;16.60;;;41.20;21.00;;;;;;5015094;28;21181;-69
2022/08/11 16:06:59;;;;;;;17.63;16.60;;;40.90;21.50;;;;;;5012952;28;21096;-69
2022/08/11 16:09:31;;;;;;;17.33;16.37;;;40.80;22.20;;;;;;5014697;28;20471;-69
2022/08/11 16:12:02;;;;;;;17.60;16.70;;;40.40;22.40;;;;;;5015133;28;20511;-68
2022/08/11 16:17:20;;;;;;;18.00;16.87;;;39.00;23.80;;;;;;5035355;28;21008;-68
2022/08/11 16:19:52;;;;;;;18.90;17.17;;;39.10;23.90;;;;;;5034795;28;20814;-68
2022/08/11 16:22:33;;;;;;;17.77;16.80;;;38.70;23.60;;;;;;5034551;28;20495;-68
2022/08/11 16:27:47;;;;;;;18.93;17.60;;;37.70;24.10;;;;;;5033066;28;20459;-68
2022/08/11 16:30:16;;;;;;;18.27;17.27;;;38.20;24.30;;;;;;5032935;28;20489;-69
2022/08/11 16:32:46;;;;;;;18.07;16.80;;;38.70;24.20;;;;;;5033248;28;20491;-68
2022/08/11 16:40:49;;;;;;;18.20;16.93;;;38.00;24.50;;;;;;5048271;28;20823;-69
2022/08/11 16:48:54;;;;;;;18.93;17.13;;;38.40;24.40;;;;;;4999601;28;20520;-68
2022/08/11 16:51:22;;;;;;;17.47;16.20;;;38.60;24.50;;;;;;5034026;28;20463;-69
2022/08/11 16:53:50;;;;;;;17.67;16.67;;;38.30;24.10;;;;;;5034178;28;20554;-69
2022/08/11 16:56:20;;;;;;;17.37;16.07;;;37.80;24.20;;;;;;5033838;28;20463;-70
2022/08/11 17:01:37;;;;;;;18.10;16.97;;;37.30;24.70;;;;;;5043989;28;20505;-68
2022/08/11 17:18:06;;;;;;;17.80;16.70;;;37.20;24.80;;;;;;4973709;28;20833;-68
2022/08/11 17:20:34;;;;;;;17.30;15.87;;;36.80;25.50;;;;;;5017327;28;20459;-68
2022/08/11 17:25:49;;;;;;;17.07;16.17;;;36.50;25.20;;;;;;5018365;28;20576;-69
2022/08/11 17:28:19;;;;;;;18.70;17.47;;;35.90;25.40;;;;;;5017724;28;20658;-68
2022/08/11 17:36:22;;;;;;;17.70;16.50;;;35.50;25.70;;;;;;5017612;28;20479;-68
2022/08/11 17:38:50;;;;;;;17.67;16.47;;;35.40;25.70;;;;;;5018071;28;20474;-69
2022/08/11 17:49:39;;;;;;;18.53;17.07;;;34.70;26.00;;;;;;5016595;28;21082;-69
2022/08/11 18:00:25;;;;;;;17.40;16.40;;;34.50;26.40;;;;;;5016340;28;20836;-69
2022/08/11 18:05:44;;;;;;;17.13;15.93;;;33.90;26.70;;;;;;5016868;28;20471;-69
